Chunky, Mississippi
Current Conditions -  °F | °C
As of 5:58 AM on Monday 24 Nov 2014 (Local Time) from KMEI Reporting Station
Few Clouds Few Clouds  
Wind Chill: 61°   Ceiling: Unl
Heat Index: 61°   Visibility: 9mi
Dew Point: 59°   Wind: 8mph
Humidity: 93%   Direction: 210°SSW
Pressure: 29.75"   Gusts: NA
Location:  32.33°N, 88.93°W
Report Text: KMEI 241158Z 21007KT 9SM FEW014 16/15 A2975 RMK AO2 SLP073 70036 T01610150 10183 20156 53020 $
Loading
Personal Weather Stations






























Interactive Weather Map New forecast layout! Learn more

10-Day Weather Forecast

Advertisements
Track Severe Weather on mobile